OAL210 LGAV-LGTS
Flight info
| Callsign | OAL210 |
|---|---|
| Flight time | 0h 37m |
| Altitude | 32000 |
| Route | KRO UT162 NEVRA UT514 OSMOS |
| Aircraft | B738/M-SDE2E3FGHIRWXY/LB1 |
Departure
| Time | 2026-05-08 06:02 |
|---|---|
| Airport | Athens Eleftherios Venizelos International Airport (LGAV) |
Arrival
| Time | 2026-05-08 06:39 |
|---|---|
| Airport | Thessaloniki Macedonia International Airport (LGTS) |
| Time | Latitude | Longitude | Altitude | Speed | Heading |
|---|---|---|---|---|---|
| 2026-05-08 05:52 | 37.93746 | 23.94978 | 300 ft | 0 kts | 306° |
| 2026-05-08 05:55 | 37.93743 | 23.94982 | 300 ft | 2 kts | 306° |
| 2026-05-08 05:56 | 37.93734 | 23.95000 | 300 ft | 0 kts | 329° |
| 2026-05-08 05:56 | 37.93745 | 23.95004 | 300 ft | 3 kts | 31° |
| 2026-05-08 05:56 | 37.93761 | 23.95021 | 300 ft | 8 kts | 50° |
| 2026-05-08 05:56 | 37.93799 | 23.95104 | 302 ft | 13 kts | 60° |
| 2026-05-08 05:57 | 37.93851 | 23.95213 | 300 ft | 15 kts | 62° |
| 2026-05-08 05:57 | 37.93895 | 23.95347 | 300 ft | 18 kts | 64° |
| 2026-05-08 05:57 | 37.93979 | 23.95451 | 300 ft | 16 kts | 37° |
| 2026-05-08 05:57 | 37.94074 | 23.95544 | 299 ft | 17 kts | 48° |
| 2026-05-08 05:58 | 37.94088 | 23.95669 | 300 ft | 6 kts | 75° |
| 2026-05-08 05:58 | 37.94121 | 23.95725 | 299 ft | 10 kts | 44° |
| 2026-05-08 05:58 | 37.94183 | 23.95786 | 301 ft | 13 kts | 36° |
| 2026-05-08 05:58 | 37.94266 | 23.95860 | 300 ft | 16 kts | 35° |
| 2026-05-08 05:59 | 37.94363 | 23.95951 | 297 ft | 17 kts | 38° |
| 2026-05-08 05:59 | 37.94437 | 23.96024 | 300 ft | 14 kts | 37° |
| 2026-05-08 05:59 | 37.94522 | 23.96107 | 301 ft | 17 kts | 37° |
| 2026-05-08 05:59 | 37.94623 | 23.96203 | 298 ft | 19 kts | 36° |
| 2026-05-08 06:00 | 37.94735 | 23.96309 | 299 ft | 21 kts | 36° |
| 2026-05-08 06:00 | 37.94857 | 23.96426 | 301 ft | 23 kts | 36° |
| 2026-05-08 06:00 | 37.94989 | 23.96550 | 301 ft | 25 kts | 37° |
| 2026-05-08 06:00 | 37.95128 | 23.96684 | 303 ft | 25 kts | 37° |
| 2026-05-08 06:01 | 37.95274 | 23.96827 | 303 ft | 27 kts | 52° |
| 2026-05-08 06:01 | 37.95213 | 23.97011 | 309 ft | 22 kts | 161° |
| 2026-05-08 06:01 | 37.94988 | 23.96833 | 307 ft | 78 kts | 216° |
| 2026-05-08 06:01 | 37.94323 | 23.96204 | 289 ft | 160 kts | 217° |
| 2026-05-08 06:02 | 37.93287 | 23.95293 | 936 ft | 182 kts | 213° |
| 2026-05-08 06:02 | 37.92545 | 23.94222 | 2603 ft | 159 kts | 249° |
| 2026-05-08 06:02 | 37.92669 | 23.92858 | 3723 ft | 166 kts | 296° |
| 2026-05-08 06:02 | 37.93449 | 23.91765 | 4422 ft | 175 kts | 306° |
| 2026-05-08 06:03 | 37.94338 | 23.90506 | 4746 ft | 207 kts | 305° |
| 2026-05-08 06:03 | 37.95379 | 23.89083 | 4959 ft | 235 kts | 317° |
| 2026-05-08 06:03 | 37.96988 | 23.88344 | 5222 ft | 263 kts | 358° |
| 2026-05-08 06:03 | 37.98746 | 23.89022 | 5733 ft | 280 kts | 33° |
| 2026-05-08 06:04 | 38.00002 | 23.90872 | 6162 ft | 291 kts | 69° |
| 2026-05-08 06:04 | 38.00261 | 23.93348 | 6987 ft | 287 kts | 103° |
| 2026-05-08 06:04 | 37.99709 | 23.95768 | 7872 ft | 289 kts | 107° |
| 2026-05-08 06:04 | 37.99297 | 23.98297 | 8673 ft | 296 kts | 101° |
| 2026-05-08 06:05 | 37.99044 | 24.00914 | 9496 ft | 301 kts | 96° |
| 2026-05-08 06:05 | 37.98905 | 24.03574 | 10342 ft | 305 kts | 94° |
| 2026-05-08 06:05 | 37.98835 | 24.06346 | 10714 ft | 327 kts | 92° |
| 2026-05-08 06:05 | 37.98811 | 24.09346 | 10874 ft | 353 kts | 91° |
| 2026-05-08 06:06 | 37.98826 | 24.12555 | 11087 ft | 375 kts | 90° |
| 2026-05-08 06:06 | 37.98868 | 24.15920 | 11557 ft | 387 kts | 89° |
| 2026-05-08 06:06 | 37.99257 | 24.19326 | 12088 ft | 397 kts | 70° |
| 2026-05-08 06:06 | 38.00695 | 24.22302 | 12792 ft | 400 kts | 45° |
| 2026-05-08 06:07 | 38.02885 | 24.24419 | 13485 ft | 402 kts | 29° |
| 2026-05-08 06:07 | 38.05331 | 24.26180 | 14076 ft | 407 kts | 28° |
| 2026-05-08 06:07 | 38.07810 | 24.27953 | 14640 ft | 411 kts | 27° |
| 2026-05-08 06:07 | 38.10317 | 24.29750 | 15259 ft | 415 kts | 27° |
| 2026-05-08 06:08 | 38.12843 | 24.31586 | 15860 ft | 421 kts | 28° |
| 2026-05-08 06:08 | 38.15393 | 24.33458 | 16551 ft | 423 kts | 27° |
| 2026-05-08 06:08 | 38.17948 | 24.35332 | 17173 ft | 427 kts | 27° |
| 2026-05-08 06:08 | 38.20550 | 24.37251 | 17654 ft | 434 kts | 27° |
| 2026-05-08 06:09 | 38.23167 | 24.39201 | 18196 ft | 437 kts | 27° |
| 2026-05-08 06:09 | 38.25755 | 24.41126 | 18820 ft | 436 kts | 27° |
| 2026-05-08 06:09 | 38.28388 | 24.43082 | 19304 ft | 439 kts | 27° |
| 2026-05-08 06:09 | 38.31037 | 24.45051 | 19753 ft | 443 kts | 27° |
| 2026-05-08 06:10 | 38.33315 | 24.46747 | 20118 ft | 446 kts | 27° |
| 2026-05-08 06:10 | 38.36015 | 24.48728 | 20575 ft | 451 kts | 26° |
| 2026-05-08 06:10 | 38.38729 | 24.50762 | 21026 ft | 455 kts | 26° |
| 2026-05-08 06:10 | 38.41513 | 24.52529 | 21456 ft | 451 kts | 14° |
| 2026-05-08 06:11 | 38.44541 | 24.53442 | 21911 ft | 443 kts | 1° |
| 2026-05-08 06:11 | 38.47602 | 24.53639 | 22374 ft | 439 kts | 351° |
| 2026-05-08 06:11 | 38.50624 | 24.53354 | 22799 ft | 439 kts | 349° |
| 2026-05-08 06:11 | 38.53679 | 24.53006 | 23210 ft | 441 kts | 349° |
| 2026-05-08 06:12 | 38.56747 | 24.52681 | 23647 ft | 443 kts | 349° |
| 2026-05-08 06:12 | 38.59837 | 24.52391 | 23997 ft | 446 kts | 349° |
| 2026-05-08 06:12 | 38.62947 | 24.52121 | 24344 ft | 448 kts | 349° |
| 2026-05-08 06:12 | 38.66064 | 24.51860 | 24675 ft | 450 kts | 349° |
| 2026-05-08 06:13 | 38.69199 | 24.51600 | 25006 ft | 452 kts | 349° |
| 2026-05-08 06:13 | 38.72365 | 24.51331 | 25214 ft | 458 kts | 350° |
| 2026-05-08 06:13 | 38.75514 | 24.51069 | 25552 ft | 459 kts | 350° |
| 2026-05-08 06:13 | 38.78706 | 24.50805 | 25943 ft | 460 kts | 349° |
| 2026-05-08 06:14 | 38.81909 | 24.50536 | 26292 ft | 461 kts | 349° |
| 2026-05-08 06:14 | 38.85115 | 24.50267 | 26610 ft | 462 kts | 349° |
| 2026-05-08 06:14 | 38.88339 | 24.49989 | 26856 ft | 467 kts | 349° |
| 2026-05-08 06:14 | 38.91581 | 24.49720 | 27333 ft | 464 kts | 350° |
| 2026-05-08 06:15 | 38.94773 | 24.49325 | 27855 ft | 455 kts | 340° |
| 2026-05-08 06:15 | 38.97639 | 24.47865 | 28342 ft | 434 kts | 322° |
| 2026-05-08 06:15 | 38.99980 | 24.45569 | 28926 ft | 424 kts | 313° |
| 2026-05-08 06:15 | 39.01979 | 24.42977 | 29410 ft | 414 kts | 307° |
| 2026-05-08 06:16 | 39.03844 | 24.40143 | 29696 ft | 415 kts | 305° |
| 2026-05-08 06:16 | 39.05651 | 24.37249 | 29999 ft | 417 kts | 304° |
| 2026-05-08 06:16 | 39.07470 | 24.34310 | 29989 ft | 421 kts | 304° |
| 2026-05-08 06:17 | 39.13017 | 24.25613 | 30003 ft | 415 kts | 304° |
| 2026-05-08 06:17 | 39.16706 | 24.19868 | 30010 ft | 416 kts | 305° |
| 2026-05-08 06:18 | 39.20384 | 24.14121 | 30093 ft | 416 kts | 304° |
| 2026-05-08 06:18 | 39.22258 | 24.11228 | 29807 ft | 421 kts | 305° |
| 2026-05-08 06:18 | 39.24116 | 24.08372 | 29161 ft | 411 kts | 305° |
| 2026-05-08 06:19 | 39.25951 | 24.05524 | 28063 ft | 415 kts | 304° |
| 2026-05-08 06:19 | 39.27797 | 24.02638 | 26999 ft | 418 kts | 304° |
| 2026-05-08 06:19 | 39.29722 | 23.99878 | 26399 ft | 413 kts | 310° |
| 2026-05-08 06:19 | 39.31912 | 23.97469 | 25511 ft | 419 kts | 320° |
| 2026-05-08 06:20 | 39.34353 | 23.95422 | 24855 ft | 415 kts | 321° |
| 2026-05-08 06:20 | 39.36765 | 23.93416 | 24258 ft | 409 kts | 321° |
| 2026-05-08 06:20 | 39.39140 | 23.91436 | 23685 ft | 406 kts | 321° |
| 2026-05-08 06:20 | 39.41488 | 23.89442 | 23044 ft | 399 kts | 321° |
| 2026-05-08 06:21 | 39.43788 | 23.87481 | 22467 ft | 394 kts | 321° |
| 2026-05-08 06:21 | 39.46016 | 23.85584 | 22231 ft | 384 kts | 321° |
| 2026-05-08 06:21 | 39.48285 | 23.83645 | 21985 ft | 398 kts | 321° |
| 2026-05-08 06:21 | 39.50644 | 23.81619 | 21469 ft | 415 kts | 322° |
| 2026-05-08 06:22 | 39.53043 | 23.79579 | 20912 ft | 409 kts | 322° |
| 2026-05-08 06:22 | 39.55404 | 23.77567 | 20381 ft | 402 kts | 322° |
| 2026-05-08 06:22 | 39.57731 | 23.75594 | 19672 ft | 398 kts | 322° |
| 2026-05-08 06:22 | 39.60064 | 23.73603 | 18680 ft | 405 kts | 323° |
| 2026-05-08 06:23 | 39.62424 | 23.71580 | 17856 ft | 406 kts | 323° |
| 2026-05-08 06:23 | 39.63970 | 23.70255 | 17495 ft | 399 kts | 323° |
| 2026-05-08 06:23 | 39.66267 | 23.68287 | 16925 ft | 392 kts | 323° |
| 2026-05-08 06:23 | 39.68062 | 23.66748 | 16498 ft | 387 kts | 323° |
| 2026-05-08 06:24 | 39.70878 | 23.64332 | 15850 ft | 378 kts | 324° |
| 2026-05-08 06:24 | 39.72352 | 23.63065 | 15519 ft | 374 kts | 324° |
| 2026-05-08 06:24 | 39.74514 | 23.61204 | 15024 ft | 371 kts | 324° |
| 2026-05-08 06:24 | 39.76660 | 23.59358 | 14541 ft | 369 kts | 325° |
| 2026-05-08 06:25 | 39.78799 | 23.57516 | 14051 ft | 372 kts | 325° |
| 2026-05-08 06:25 | 39.80989 | 23.55624 | 13505 ft | 381 kts | 325° |
| 2026-05-08 06:25 | 39.83201 | 23.53713 | 12962 ft | 380 kts | 325° |
| 2026-05-08 06:25 | 39.85379 | 23.51833 | 12439 ft | 373 kts | 325° |
| 2026-05-08 06:26 | 39.87444 | 23.50049 | 11956 ft | 366 kts | 325° |
| 2026-05-08 06:26 | 39.89547 | 23.48234 | 11475 ft | 360 kts | 325° |
| 2026-05-08 06:26 | 39.91608 | 23.46451 | 11123 ft | 350 kts | 325° |
| 2026-05-08 06:26 | 39.93596 | 23.44730 | 10984 ft | 337 kts | 325° |
| 2026-05-08 06:27 | 39.95525 | 23.43058 | 10838 ft | 329 kts | 325° |
| 2026-05-08 06:27 | 39.97416 | 23.41418 | 10723 ft | 326 kts | 325° |
| 2026-05-08 06:27 | 39.99304 | 23.39780 | 10573 ft | 324 kts | 325° |
| 2026-05-08 06:27 | 40.01099 | 23.38225 | 10427 ft | 313 kts | 325° |
| 2026-05-08 06:28 | 40.02888 | 23.36675 | 10278 ft | 302 kts | 325° |
| 2026-05-08 06:28 | 40.04607 | 23.35181 | 10150 ft | 292 kts | 324° |
| 2026-05-08 06:28 | 40.06271 | 23.33732 | 9922 ft | 286 kts | 324° |
| 2026-05-08 06:28 | 40.07896 | 23.32316 | 9648 ft | 282 kts | 324° |
| 2026-05-08 06:29 | 40.09520 | 23.30904 | 9376 ft | 278 kts | 324° |
| 2026-05-08 06:29 | 40.11119 | 23.29510 | 9090 ft | 274 kts | 324° |
| 2026-05-08 06:29 | 40.12720 | 23.28115 | 8599 ft | 279 kts | 324° |
| 2026-05-08 06:29 | 40.14333 | 23.26710 | 8150 ft | 278 kts | 324° |
| 2026-05-08 06:30 | 40.15960 | 23.25331 | 7785 ft | 278 kts | 326° |
| 2026-05-08 06:30 | 40.17598 | 23.24011 | 7476 ft | 274 kts | 326° |
| 2026-05-08 06:30 | 40.18973 | 23.22368 | 7159 ft | 265 kts | 296° |
| 2026-05-08 06:30 | 40.19362 | 23.20108 | 6912 ft | 252 kts | 260° |
| 2026-05-08 06:31 | 40.18802 | 23.18000 | 6703 ft | 243 kts | 245° |
| 2026-05-08 06:31 | 40.18166 | 23.15964 | 6387 ft | 242 kts | 247° |
| 2026-05-08 06:31 | 40.17564 | 23.13953 | 6092 ft | 239 kts | 248° |
| 2026-05-08 06:31 | 40.17023 | 23.11916 | 5832 ft | 236 kts | 257° |
| 2026-05-08 06:32 | 40.17197 | 23.09790 | 5576 ft | 244 kts | 295° |
| 2026-05-08 06:32 | 40.18382 | 23.08205 | 5408 ft | 251 kts | 331° |
| 2026-05-08 06:32 | 40.20040 | 23.07360 | 5294 ft | 260 kts | 340° |
| 2026-05-08 06:32 | 40.21770 | 23.06714 | 5172 ft | 253 kts | 343° |
| 2026-05-08 06:33 | 40.23424 | 23.06177 | 5081 ft | 237 kts | 344° |
| 2026-05-08 06:33 | 40.24972 | 23.05690 | 4965 ft | 221 kts | 345° |
| 2026-05-08 06:33 | 40.26420 | 23.05233 | 4807 ft | 210 kts | 345° |
| 2026-05-08 06:33 | 40.27819 | 23.04788 | 4580 ft | 204 kts | 345° |
| 2026-05-08 06:34 | 40.29195 | 23.04350 | 4392 ft | 204 kts | 345° |
| 2026-05-08 06:34 | 40.30584 | 23.03907 | 4206 ft | 207 kts | 345° |
| 2026-05-08 06:34 | 40.31993 | 23.03459 | 3995 ft | 209 kts | 346° |
| 2026-05-08 06:34 | 40.33399 | 23.03011 | 3792 ft | 207 kts | 346° |
| 2026-05-08 06:35 | 40.34794 | 23.02566 | 3573 ft | 206 kts | 346° |
| 2026-05-08 06:35 | 40.36179 | 23.02123 | 3379 ft | 204 kts | 346° |
| 2026-05-08 06:35 | 40.37534 | 23.01691 | 3157 ft | 202 kts | 346° |
| 2026-05-08 06:35 | 40.38902 | 23.01257 | 2855 ft | 202 kts | 347° |
| 2026-05-08 06:36 | 40.40254 | 23.00828 | 2547 ft | 196 kts | 347° |
| 2026-05-08 06:36 | 40.41544 | 23.00420 | 2270 ft | 186 kts | 347° |
| 2026-05-08 06:36 | 40.42748 | 23.00035 | 2000 ft | 172 kts | 347° |
| 2026-05-08 06:36 | 40.43810 | 22.99695 | 1737 ft | 164 kts | 347° |
| 2026-05-08 06:37 | 40.44899 | 22.99348 | 1475 ft | 160 kts | 347° |
| 2026-05-08 06:37 | 40.45991 | 22.99021 | 1207 ft | 160 kts | 347° |
| 2026-05-08 06:37 | 40.47061 | 22.98691 | 932 ft | 157 kts | 347° |
| 2026-05-08 06:37 | 40.48109 | 22.98353 | 726 ft | 154 kts | 345° |
| 2026-05-08 06:38 | 40.49157 | 22.98008 | 509 ft | 157 kts | 345° |
| 2026-05-08 06:38 | 40.50209 | 22.97662 | 281 ft | 154 kts | 346° |
| 2026-05-08 06:38 | 40.51233 | 22.97329 | 46 ft | 148 kts | 346° |
| 2026-05-08 06:38 | 40.52135 | 22.97047 | 26 ft | 108 kts | 346° |
| 2026-05-08 06:39 | 40.52610 | 22.96904 | 28 ft | 42 kts | 2° |
| 2026-05-08 06:39 | 40.52584 | 22.97084 | 28 ft | 29 kts | 167° |
| 2026-05-08 06:39 | 40.52407 | 22.97154 | 27 ft | 20 kts | 140° |
| 2026-05-08 06:39 | 40.52362 | 22.97306 | 27 ft | 20 kts | 130° |
| 2026-05-08 06:40 | 40.52297 | 22.97459 | 27 ft | 19 kts | 69° |
| 2026-05-08 06:40 | 40.52346 | 22.97532 | 27 ft | 0 kts | 45° |